sensor_id;sensor_type;location;lat;lon;timestamp;temperature;humidity
64654;DHT22;51065;48.884;12.598;2024-01-27T00:01:40;2.70;1.00
64654;DHT22;51065;48.884;12.598;2024-01-27T00:04:06;2.60;1.00
64654;DHT22;51065;48.884;12.598;2024-01-27T00:06:31;2.50;23.10
64654;DHT22;51065;48.884;12.598;2024-01-27T00:08:57;2.40;57.50
64654;DHT22;51065;48.884;12.598;2024-01-27T00:11:22;2.20;73.00
64654;DHT22;51065;48.884;12.598;2024-01-27T00:13:52;2.10;99.90
64654;DHT22;51065;48.884;12.598;2024-01-27T00:16:17;2.00;99.90
64654;DHT22;51065;48.884;12.598;2024-01-27T00:18:43;1.90;99.90
64654;DHT22;51065;48.884;12.598;2024-01-27T00:21:09;2.00;99.90
64654;DHT22;51065;48.884;12.598;2024-01-27T00:23:34;2.10;99.90
64654;DHT22;51065;48.884;12.598;2024-01-27T00:26:03;2.00;99.90
64654;DHT22;51065;48.884;12.598;2024-01-27T00:28:29;2.00;99.90
64654;DHT22;51065;48.884;12.598;2024-01-27T00:30:55;2.00;1.00
64654;DHT22;51065;48.884;12.598;2024-01-27T00:33:21;2.10;1.00
64654;DHT22;51065;48.884;12.598;2024-01-27T00:35:47;2.20;99.90
64654;DHT22;51065;48.884;12.598;2024-01-27T00:38:13;2.20;99.90
64654;DHT22;51065;48.884;12.598;2024-01-27T00:40:38;2.10;99.90
64654;DHT22;51065;48.884;12.598;2024-01-27T00:43:04;2.10;99.90
64654;DHT22;51065;48.884;12.598;2024-01-27T00:45:30;2.00;99.90
64654;DHT22;51065;48.884;12.598;2024-01-27T00:47:56;2.00;1.00
64654;DHT22;51065;48.884;12.598;2024-01-27T00:50:22;1.90;1.00
64654;DHT22;51065;48.884;12.598;2024-01-27T00:52:48;2.00;1.00
64654;DHT22;51065;48.884;12.598;2024-01-27T00:55:14;1.90;1.00
64654;DHT22;51065;48.884;12.598;2024-01-27T00:57:39;1.80;1.00
64654;DHT22;51065;48.884;12.598;2024-01-27T01:00:07;1.60;1.00
64654;DHT22;51065;48.884;12.598;2024-01-27T01:02:33;1.40;1.00
64654;DHT22;51065;48.884;12.598;2024-01-27T01:04:59;1.30;1.00
64654;DHT22;51065;48.884;12.598;2024-01-27T01:07:24;1.30;1.00
64654;DHT22;51065;48.884;12.598;2024-01-27T01:09:50;1.30;1.00
64654;DHT22;51065;48.884;12.598;2024-01-27T01:12:16;1.20;1.00
64654;DHT22;51065;48.884;12.598;2024-01-27T01:14:43;1.30;53.00
64654;DHT22;51065;48.884;12.598;2024-01-27T01:17:08;1.40;91.50
64654;DHT22;51065;48.884;12.598;2024-01-27T01:19:35;1.50;99.30
64654;DHT22;51065;48.884;12.598;2024-01-27T01:22:01;1.50;94.60
64654;DHT22;51065;48.884;12.598;2024-01-27T01:24:27;1.40;66.20
64654;DHT22;51065;48.884;12.598;2024-01-27T01:26:52;1.20;47.60
64654;DHT22;51065;48.884;12.598;2024-01-27T01:29:18;1.20;51.90
64654;DHT22;51065;48.884;12.598;2024-01-27T01:31:43;1.10;53.40
64654;DHT22;51065;48.884;12.598;2024-01-27T01:34:09;1.10;95.10
64654;DHT22;51065;48.884;12.598;2024-01-27T01:36:35;1.00;99.90
64654;DHT22;51065;48.884;12.598;2024-01-27T01:39:00;1.10;99.90
64654;DHT22;51065;48.884;12.598;2024-01-27T01:41:26;1.10;99.90
64654;DHT22;51065;48.884;12.598;2024-01-27T01:43:52;1.00;99.90
64654;DHT22;51065;48.884;12.598;2024-01-27T01:46:18;0.90;99.90
64654;DHT22;51065;48.884;12.598;2024-01-27T01:48:44;1.00;99.90
64654;DHT22;51065;48.884;12.598;2024-01-27T01:51:10;1.20;99.90
64654;DHT22;51065;48.884;12.598;2024-01-27T01:53:36;1.20;99.90
64654;DHT22;51065;48.884;12.598;2024-01-27T01:56:09;1.20;99.90
64654;DHT22;51065;48.884;12.598;2024-01-27T01:58:34;1.30;99.90
64654;DHT22;51065;48.884;12.598;2024-01-27T02:01:00;1.30;99.90
64654;DHT22;51065;48.884;12.598;2024-01-27T02:03:27;1.20;99.90
64654;DHT22;51065;48.884;12.598;2024-01-27T02:05:52;1.30;99.90
64654;DHT22;51065;48.884;12.598;2024-01-27T02:08:18;1.30;99.90
64654;DHT22;51065;48.884;12.598;2024-01-27T02:10:43;1.30;99.90
64654;DHT22;51065;48.884;12.598;2024-01-27T02:13:17;1.30;99.90
64654;DHT22;51065;48.884;12.598;2024-01-27T02:15:46;1.30;96.30
64654;DHT22;51065;48.884;12.598;2024-01-27T02:18:12;1.30;99.80
64654;DHT22;51065;48.884;12.598;2024-01-27T02:20:37;1.20;92.30
64654;DHT22;51065;48.884;12.598;2024-01-27T02:23:04;1.30;92.40
64654;DHT22;51065;48.884;12.598;2024-01-27T02:25:31;1.20;89.10
64654;DHT22;51065;48.884;12.598;2024-01-27T02:27:56;1.10;44.40
64654;DHT22;51065;48.884;12.598;2024-01-27T02:30:22;1.00;32.00
64654;DHT22;51065;48.884;12.598;2024-01-27T02:32:48;1.00;64.70
64654;DHT22;51065;48.884;12.598;2024-01-27T02:35:13;1.20;99.90
64654;DHT22;51065;48.884;12.598;2024-01-27T02:37:40;1.20;99.90
64654;DHT22;51065;48.884;12.598;2024-01-27T02:40:07;1.30;99.90
64654;DHT22;51065;48.884;12.598;2024-01-27T02:42:33;1.40;93.70
64654;DHT22;51065;48.884;12.598;2024-01-27T02:44:58;1.40;66.20
64654;DHT22;51065;48.884;12.598;2024-01-27T02:47:24;1.40;42.80
64654;DHT22;51065;48.884;12.598;2024-01-27T02:49:50;1.40;20.10
64654;DHT22;51065;48.884;12.598;2024-01-27T02:52:15;1.50;16.90
64654;DHT22;51065;48.884;12.598;2024-01-27T02:54:41;1.40;1.00
64654;DHT22;51065;48.884;12.598;2024-01-27T02:57:06;1.30;1.00
64654;DHT22;51065;48.884;12.598;2024-01-27T02:59:32;1.40;1.00
64654;DHT22;51065;48.884;12.598;2024-01-27T03:01:58;1.30;1.00
64654;DHT22;51065;48.884;12.598;2024-01-27T03:04:24;1.20;1.00
64654;DHT22;51065;48.884;12.598;2024-01-27T03:06:49;1.20;1.00
64654;DHT22;51065;48.884;12.598;2024-01-27T03:09:15;1.00;1.00
64654;DHT22;51065;48.884;12.598;2024-01-27T03:11:40;1.00;3.30
64654;DHT22;51065;48.884;12.598;2024-01-27T03:14:06;1.00;26.10
64654;DHT22;51065;48.884;12.598;2024-01-27T03:16:32;1.00;31.10
64654;DHT22;51065;48.884;12.598;2024-01-27T03:18:58;0.90;20.00
64654;DHT22;51065;48.884;12.598;2024-01-27T03:21:23;0.80;36.10
64654;DHT22;51065;48.884;12.598;2024-01-27T03:23:49;0.70;25.70
64654;DHT22;51065;48.884;12.598;2024-01-27T03:26:14;0.70;39.20
64654;DHT22;51065;48.884;12.598;2024-01-27T03:28:40;0.70;65.00
64654;DHT22;51065;48.884;12.598;2024-01-27T03:31:06;0.60;64.10
64654;DHT22;51065;48.884;12.598;2024-01-27T03:33:31;0.50;81.30
64654;DHT22;51065;48.884;12.598;2024-01-27T03:35:57;0.60;99.90
64654;DHT22;51065;48.884;12.598;2024-01-27T03:38:23;0.50;99.90
64654;DHT22;51065;48.884;12.598;2024-01-27T03:40:48;0.50;99.90
64654;DHT22;51065;48.884;12.598;2024-01-27T03:43:14;0.50;99.90
64654;DHT22;51065;48.884;12.598;2024-01-27T03:45:40;0.50;99.90
64654;DHT22;51065;48.884;12.598;2024-01-27T03:48:06;0.50;99.90
64654;DHT22;51065;48.884;12.598;2024-01-27T03:50:31;0.60;99.90
64654;DHT22;51065;48.884;12.598;2024-01-27T03:52:57;0.70;99.90
64654;DHT22;51065;48.884;12.598;2024-01-27T03:55:22;0.70;99.90
64654;DHT22;51065;48.884;12.598;2024-01-27T03:57:48;0.70;99.90
64654;DHT22;51065;48.884;12.598;2024-01-27T04:00:14;0.70;99.90
64654;DHT22;51065;48.884;12.598;2024-01-27T04:02:39;0.80;99.90
64654;DHT22;51065;48.884;12.598;2024-01-27T04:05:06;0.80;99.90
64654;DHT22;51065;48.884;12.598;2024-01-27T04:07:31;0.80;99.90
64654;DHT22;51065;48.884;12.598;2024-01-27T04:09:57;0.70;99.90
64654;DHT22;51065;48.884;12.598;2024-01-27T04:12:22;0.70;99.90
64654;DHT22;51065;48.884;12.598;2024-01-27T04:14:48;0.90;99.90
64654;DHT22;51065;48.884;12.598;2024-01-27T04:17:13;0.80;99.90
64654;DHT22;51065;48.884;12.598;2024-01-27T04:19:39;0.70;99.90
64654;DHT22;51065;48.884;12.598;2024-01-27T04:22:04;0.70;99.90
64654;DHT22;51065;48.884;12.598;2024-01-27T04:24:30;0.80;99.90
64654;DHT22;51065;48.884;12.598;2024-01-27T04:26:55;0.70;99.90
64654;DHT22;51065;48.884;12.598;2024-01-27T04:29:21;0.80;99.90
64654;DHT22;51065;48.884;12.598;2024-01-27T04:31:46;0.90;99.90
64654;DHT22;51065;48.884;12.598;2024-01-27T04:34:12;1.00;99.90
64654;DHT22;51065;48.884;12.598;2024-01-27T04:36:38;1.20;99.90
64654;DHT22;51065;48.884;12.598;2024-01-27T04:39:03;1.10;64.40
64654;DHT22;51065;48.884;12.598;2024-01-27T04:41:29;1.20;35.70
64654;DHT22;51065;48.884;12.598;2024-01-27T04:43:55;1.10;1.00
64654;DHT22;51065;48.884;12.598;2024-01-27T04:46:22;1.10;1.00
64654;DHT22;51065;48.884;12.598;2024-01-27T04:48:48;1.00;1.00
64654;DHT22;51065;48.884;12.598;2024-01-27T04:51:13;1.00;1.00
64654;DHT22;51065;48.884;12.598;2024-01-27T04:53:39;1.00;1.00
64654;DHT22;51065;48.884;12.598;2024-01-27T04:56:05;1.00;1.00
64654;DHT22;51065;48.884;12.598;2024-01-27T04:58:34;0.90;1.00
64654;DHT22;51065;48.884;12.598;2024-01-27T05:01:01;0.70;1.00
64654;DHT22;51065;48.884;12.598;2024-01-27T05:03:26;0.70;1.00
64654;DHT22;51065;48.884;12.598;2024-01-27T05:05:52;0.60;1.00
64654;DHT22;51065;48.884;12.598;2024-01-27T05:08:18;0.40;1.00
64654;DHT22;51065;48.884;12.598;2024-01-27T05:10:44;0.30;1.00
64654;DHT22;51065;48.884;12.598;2024-01-27T05:13:10;0.30;1.00
64654;DHT22;51065;48.884;12.598;2024-01-27T05:15:35;0.30;25.70
64654;DHT22;51065;48.884;12.598;2024-01-27T05:18:01;0.20;25.10
64654;DHT22;51065;48.884;12.598;2024-01-27T05:20:26;0.20;33.30
64654;DHT22;51065;48.884;12.598;2024-01-27T05:22:52;0.10;46.40
64654;DHT22;51065;48.884;12.598;2024-01-27T05:25:17;0.00;41.00
64654;DHT22;51065;48.884;12.598;2024-01-27T05:27:46;-0.10;19.00
64654;DHT22;51065;48.884;12.598;2024-01-27T05:30:12;-0.20;24.90
64654;DHT22;51065;48.884;12.598;2024-01-27T05:32:40;-0.30;25.20
64654;DHT22;51065;48.884;12.598;2024-01-27T05:35:06;-0.40;46.90
64654;DHT22;51065;48.884;12.598;2024-01-27T05:37:32;-0.30;99.90
64654;DHT22;51065;48.884;12.598;2024-01-27T05:39:58;-0.30;99.90
64654;DHT22;51065;48.884;12.598;2024-01-27T05:42:23;-0.30;99.90
64654;DHT22;51065;48.884;12.598;2024-01-27T05:44:49;-0.50;99.90
64654;DHT22;51065;48.884;12.598;2024-01-27T05:47:14;-0.70;91.80
64654;DHT22;51065;48.884;12.598;2024-01-27T05:49:40;-0.70;97.50
64654;DHT22;51065;48.884;12.598;2024-01-27T05:52:06;-0.80;99.90
64654;DHT22;51065;48.884;12.598;2024-01-27T05:54:31;-0.90;99.90
64654;DHT22;51065;48.884;12.598;2024-01-27T05:56:57;-1.10;92.80
64654;DHT22;51065;48.884;12.598;2024-01-27T05:59:23;-1.20;93.80
64654;DHT22;51065;48.884;12.598;2024-01-27T06:01:49;-1.20;96.20
64654;DHT22;51065;48.884;12.598;2024-01-27T06:04:15;-1.30;99.90
64654;DHT22;51065;48.884;12.598;2024-01-27T06:06:40;-1.40;99.90
64654;DHT22;51065;48.884;12.598;2024-01-27T06:09:07;-1.50;99.90
64654;DHT22;51065;48.884;12.598;2024-01-27T06:11:39;-1.40;99.90
64654;DHT22;51065;48.884;12.598;2024-01-27T06:14:05;-1.30;99.90
64654;DHT22;51065;48.884;12.598;2024-01-27T06:16:32;-1.20;99.90
64654;DHT22;51065;48.884;12.598;2024-01-27T06:18:57;-0.90;99.90
64654;DHT22;51065;48.884;12.598;2024-01-27T06:21:24;-0.60;99.90
64654;DHT22;51065;48.884;12.598;2024-01-27T06:23:50;-0.30;99.90
64654;DHT22;51065;48.884;12.598;2024-01-27T06:26:16;-0.20;99.90
64654;DHT22;51065;48.884;12.598;2024-01-27T06:28:41;-0.40;99.90
64654;DHT22;51065;48.884;12.598;2024-01-27T06:31:07;-0.50;99.90
64654;DHT22;51065;48.884;12.598;2024-01-27T06:33:34;-0.50;99.90
64654;DHT22;51065;48.884;12.598;2024-01-27T06:36:00;-0.50;99.90
64654;DHT22;51065;48.884;12.598;2024-01-27T06:38:27;-0.60;99.90
64654;DHT22;51065;48.884;12.598;2024-01-27T06:40:53;-0.80;99.90
64654;DHT22;51065;48.884;12.598;2024-01-27T06:43:19;-0.90;99.90
64654;DHT22;51065;48.884;12.598;2024-01-27T06:45:44;-0.90;99.90
64654;DHT22;51065;48.884;12.598;2024-01-27T06:48:10;-0.90;99.90
64654;DHT22;51065;48.884;12.598;2024-01-27T06:50:36;-0.80;99.90
64654;DHT22;51065;48.884;12.598;2024-01-27T06:53:01;-0.70;99.90
64654;DHT22;51065;48.884;12.598;2024-01-27T06:55:27;-0.80;99.90
64654;DHT22;51065;48.884;12.598;2024-01-27T06:57:53;-0.70;99.90
64654;DHT22;51065;48.884;12.598;2024-01-27T07:00:19;-0.80;99.90
64654;DHT22;51065;48.884;12.598;2024-01-27T07:02:45;-0.80;99.90
64654;DHT22;51065;48.884;12.598;2024-01-27T07:05:10;-0.70;99.90
64654;DHT22;51065;48.884;12.598;2024-01-27T07:07:38;-0.60;99.90
64654;DHT22;51065;48.884;12.598;2024-01-27T07:10:04;-0.60;99.90
64654;DHT22;51065;48.884;12.598;2024-01-27T07:12:34;-0.50;99.90
64654;DHT22;51065;48.884;12.598;2024-01-27T07:15:00;-0.50;99.90
64654;DHT22;51065;48.884;12.598;2024-01-27T07:17:29;-0.60;99.90
64654;DHT22;51065;48.884;12.598;2024-01-27T07:19:55;-0.60;99.90
64654;DHT22;51065;48.884;12.598;2024-01-27T07:22:20;-0.60;99.90
64654;DHT22;51065;48.884;12.598;2024-01-27T07:24:46;-0.60;99.90
64654;DHT22;51065;48.884;12.598;2024-01-27T07:27:12;-0.40;99.90
64654;DHT22;51065;48.884;12.598;2024-01-27T07:29:39;-0.30;99.90
64654;DHT22;51065;48.884;12.598;2024-01-27T07:32:05;-0.10;99.90
64654;DHT22;51065;48.884;12.598;2024-01-27T07:34:33;0.10;99.90
64654;DHT22;51065;48.884;12.598;2024-01-27T07:36:58;0.40;99.90
64654;DHT22;51065;48.884;12.598;2024-01-27T07:39:24;0.60;99.90
64654;DHT22;51065;48.884;12.598;2024-01-27T07:41:49;0.80;99.90
64654;DHT22;51065;48.884;12.598;2024-01-27T07:44:15;0.90;99.90
64654;DHT22;51065;48.884;12.598;2024-01-27T07:46:41;1.10;99.90
64654;DHT22;51065;48.884;12.598;2024-01-27T07:49:08;1.20;99.90
64654;DHT22;51065;48.884;12.598;2024-01-27T07:51:34;1.40;99.90
64654;DHT22;51065;48.884;12.598;2024-01-27T07:54:00;1.60;99.90
64654;DHT22;51065;48.884;12.598;2024-01-27T07:56:26;1.80;99.90
64654;DHT22;51065;48.884;12.598;2024-01-27T07:58:51;2.20;99.90
64654;DHT22;51065;48.884;12.598;2024-01-27T08:01:17;2.40;99.90
64654;DHT22;51065;48.884;12.598;2024-01-27T08:03:43;2.60;99.90
64654;DHT22;51065;48.884;12.598;2024-01-27T08:06:16;2.70;56.10
64654;DHT22;51065;48.884;12.598;2024-01-27T08:08:44;2.80;1.00
64654;DHT22;51065;48.884;12.598;2024-01-27T08:11:10;2.90;1.00
64654;DHT22;51065;48.884;12.598;2024-01-27T08:13:35;3.30;1.00
64654;DHT22;51065;48.884;12.598;2024-01-27T08:16:01;3.30;99.90
64654;DHT22;51065;48.884;12.598;2024-01-27T08:18:27;3.40;99.90
64654;DHT22;51065;48.884;12.598;2024-01-27T08:20:52;3.40;1.00
64654;DHT22;51065;48.884;12.598;2024-01-27T08:23:18;3.70;99.90
64654;DHT22;51065;48.884;12.598;2024-01-27T08:25:43;3.90;1.00
64654;DHT22;51065;48.884;12.598;2024-01-27T08:28:12;3.70;1.00
64654;DHT22;51065;48.884;12.598;2024-01-27T08:30:38;4.10;99.90
64654;DHT22;51065;48.884;12.598;2024-01-27T08:33:04;4.30;99.90
64654;DHT22;51065;48.884;12.598;2024-01-27T08:35:30;4.40;1.00
64654;DHT22;51065;48.884;12.598;2024-01-27T08:37:56;4.60;8.90
64654;DHT22;51065;48.884;12.598;2024-01-27T08:40:21;4.80;99.90
64654;DHT22;51065;48.884;12.598;2024-01-27T08:42:47;4.90;99.90
64654;DHT22;51065;48.884;12.598;2024-01-27T08:45:13;5.00;1.00
64654;DHT22;51065;48.884;12.598;2024-01-27T08:47:39;5.10;99.90
64654;DHT22;51065;48.884;12.598;2024-01-27T08:50:05;5.10;1.00
64654;DHT22;51065;48.884;12.598;2024-01-27T08:52:31;5.50;67.20
64654;DHT22;51065;48.884;12.598;2024-01-27T08:54:56;5.20;99.90
64654;DHT22;51065;48.884;12.598;2024-01-27T08:57:22;5.50;99.90
64654;DHT22;51065;48.884;12.598;2024-01-27T08:59:47;5.40;99.90
64654;DHT22;51065;48.884;12.598;2024-01-27T09:02:13;5.40;99.90
64654;DHT22;51065;48.884;12.598;2024-01-27T09:04:38;5.60;99.90
64654;DHT22;51065;48.884;12.598;2024-01-27T09:07:04;5.70;46.90
64654;DHT22;51065;48.884;12.598;2024-01-27T09:09:29;5.30;99.90
64654;DHT22;51065;48.884;12.598;2024-01-27T09:11:55;5.20;99.90
64654;DHT22;51065;48.884;12.598;2024-01-27T09:14:21;5.40;99.90
64654;DHT22;51065;48.884;12.598;2024-01-27T09:16:46;5.70;99.90
64654;DHT22;51065;48.884;12.598;2024-01-27T09:19:12;5.50;99.90
64654;DHT22;51065;48.884;12.598;2024-01-27T09:21:38;5.40;99.90
64654;DHT22;51065;48.884;12.598;2024-01-27T09:24:03;5.50;99.90
64654;DHT22;51065;48.884;12.598;2024-01-27T09:26:29;5.80;9.40
64654;DHT22;51065;48.884;12.598;2024-01-27T09:28:55;5.50;50.60
64654;DHT22;51065;48.884;12.598;2024-01-27T09:31:22;5.70;1.00
64654;DHT22;51065;48.884;12.598;2024-01-27T09:33:51;5.70;1.00
64654;DHT22;51065;48.884;12.598;2024-01-27T09:36:17;5.90;1.00
64654;DHT22;51065;48.884;12.598;2024-01-27T09:38:43;5.90;1.00
64654;DHT22;51065;48.884;12.598;2024-01-27T09:41:09;6.20;1.00
64654;DHT22;51065;48.884;12.598;2024-01-27T09:43:37;6.40;99.90
64654;DHT22;51065;48.884;12.598;2024-01-27T09:46:03;5.90;99.90
64654;DHT22;51065;48.884;12.598;2024-01-27T09:48:29;6.00;99.90
64654;DHT22;51065;48.884;12.598;2024-01-27T09:50:58;6.20;1.00
64654;DHT22;51065;48.884;12.598;2024-01-27T09:53:24;6.10;1.00
64654;DHT22;51065;48.884;12.598;2024-01-27T09:55:49;6.30;99.90
64654;DHT22;51065;48.884;12.598;2024-01-27T09:58:16;6.30;99.90
64654;DHT22;51065;48.884;12.598;2024-01-27T10:00:41;6.30;99.90
64654;DHT22;51065;48.884;12.598;2024-01-27T10:03:08;6.10;99.90
64654;DHT22;51065;48.884;12.598;2024-01-27T10:05:34;6.40;99.90
64654;DHT22;51065;48.884;12.598;2024-01-27T10:08:00;6.40;99.90
64654;DHT22;51065;48.884;12.598;2024-01-27T10:10:26;5.90;1.00
64654;DHT22;51065;48.884;12.598;2024-01-27T10:12:52;5.90;1.00
64654;DHT22;51065;48.884;12.598;2024-01-27T10:15:22;6.50;99.90
64654;DHT22;51065;48.884;12.598;2024-01-27T10:17:48;6.60;99.90
64654;DHT22;51065;48.884;12.598;2024-01-27T10:20:14;7.20;2.80
64654;DHT22;51065;48.884;12.598;2024-01-27T10:22:44;7.50;99.90
64654;DHT22;51065;48.884;12.598;2024-01-27T10:25:11;7.30;1.00
64654;DHT22;51065;48.884;12.598;2024-01-27T10:27:37;6.80;1.00
64654;DHT22;51065;48.884;12.598;2024-01-27T10:30:03;5.90;99.90
64654;DHT22;51065;48.884;12.598;2024-01-27T10:32:28;5.20;99.90
64654;DHT22;51065;48.884;12.598;2024-01-27T10:35:04;4.70;1.00
64654;DHT22;51065;48.884;12.598;2024-01-27T10:37:31;4.20;99.90
64654;DHT22;51065;48.884;12.598;2024-01-27T10:40:01;4.00;1.00
64654;DHT22;51065;48.884;12.598;2024-01-27T10:42:29;3.80;99.90
64654;DHT22;51065;48.884;12.598;2024-01-27T10:44:58;3.80;99.90
64654;DHT22;51065;48.884;12.598;2024-01-27T10:47:27;3.80;99.90
64654;DHT22;51065;48.884;12.598;2024-01-27T10:49:55;3.80;99.90
64654;DHT22;51065;48.884;12.598;2024-01-27T10:52:23;3.80;99.90
64654;DHT22;51065;48.884;12.598;2024-01-27T10:54:58;3.80;99.90
64654;DHT22;51065;48.884;12.598;2024-01-27T10:57:26;3.80;99.90
64654;DHT22;51065;48.884;12.598;2024-01-27T10:59:53;3.80;1.00
64654;DHT22;51065;48.884;12.598;2024-01-27T11:02:19;3.80;99.90
64654;DHT22;51065;48.884;12.598;2024-01-27T11:04:48;3.90;1.00
64654;DHT22;51065;48.884;12.598;2024-01-27T11:07:14;4.00;99.90
64654;DHT22;51065;48.884;12.598;2024-01-27T11:09:39;4.10;99.90
64654;DHT22;51065;48.884;12.598;2024-01-27T11:12:08;4.10;99.90
64654;DHT22;51065;48.884;12.598;2024-01-27T11:14:34;4.10;95.10
64654;DHT22;51065;48.884;12.598;2024-01-27T11:17:00;4.10;98.60
64654;DHT22;51065;48.884;12.598;2024-01-27T11:19:26;4.20;1.00
64654;DHT22;51065;48.884;12.598;2024-01-27T11:22:04;4.20;75.90
64654;DHT22;51065;48.884;12.598;2024-01-27T11:24:31;4.30;1.00
64654;DHT22;51065;48.884;12.598;2024-01-27T11:27:15;4.30;7.30
64654;DHT22;51065;48.884;12.598;2024-01-27T11:29:47;4.30;99.90
64654;DHT22;51065;48.884;12.598;2024-01-27T11:32:15;4.40;1.00
64654;DHT22;51065;48.884;12.598;2024-01-27T11:34:44;4.60;99.90
64654;DHT22;51065;48.884;12.598;2024-01-27T11:37:16;5.30;99.90
64654;DHT22;51065;48.884;12.598;2024-01-27T11:39:43;6.10;1.00
64654;DHT22;51065;48.884;12.598;2024-01-27T11:42:12;6.50;99.90
64654;DHT22;51065;48.884;12.598;2024-01-27T11:44:39;7.00;20.90
64654;DHT22;51065;48.884;12.598;2024-01-27T11:47:07;7.10;9.30
64654;DHT22;51065;48.884;12.598;2024-01-27T11:49:39;7.30;1.00
64654;DHT22;51065;48.884;12.598;2024-01-27T11:52:06;7.60;99.90
64654;DHT22;51065;48.884;12.598;2024-01-27T11:54:32;7.90;99.90
64654;DHT22;51065;48.884;12.598;2024-01-27T11:56:58;8.30;99.90
64654;DHT22;51065;48.884;12.598;2024-01-27T11:59:26;8.80;1.00
64654;DHT22;51065;48.884;12.598;2024-01-27T12:01:52;8.80;99.90
64654;DHT22;51065;48.884;12.598;2024-01-27T12:04:18;8.50;99.90
64654;DHT22;51065;48.884;12.598;2024-01-27T12:06:45;8.90;1.00
64654;DHT22;51065;48.884;12.598;2024-01-27T12:09:10;8.90;1.00
64654;DHT22;51065;48.884;12.598;2024-01-27T12:11:40;8.70;1.00
64654;DHT22;51065;48.884;12.598;2024-01-27T12:14:06;8.90;1.00
64654;DHT22;51065;48.884;12.598;2024-01-27T12:16:32;8.90;99.90
64654;DHT22;51065;48.884;12.598;2024-01-27T12:18:57;8.90;1.00
64654;DHT22;51065;48.884;12.598;2024-01-27T12:21:23;9.10;99.90
64654;DHT22;51065;48.884;12.598;2024-01-27T12:23:58;9.00;99.90
64654;DHT22;51065;48.884;12.598;2024-01-27T12:26:30;9.10;99.90
64654;DHT22;51065;48.884;12.598;2024-01-27T12:28:57;8.50;1.00
64654;DHT22;51065;48.884;12.598;2024-01-27T12:31:23;8.70;99.90
64654;DHT22;51065;48.884;12.598;2024-01-27T12:33:54;8.60;1.00
64654;DHT22;51065;48.884;12.598;2024-01-27T12:36:21;8.50;1.00
64654;DHT22;51065;48.884;12.598;2024-01-27T12:39:07;8.60;1.00
64654;DHT22;51065;48.884;12.598;2024-01-27T12:41:33;8.60;1.00
64654;DHT22;51065;48.884;12.598;2024-01-27T12:43:59;8.90;1.00
64654;DHT22;51065;48.884;12.598;2024-01-27T12:46:25;9.30;99.90
64654;DHT22;51065;48.884;12.598;2024-01-27T12:48:50;9.00;1.00
64654;DHT22;51065;48.884;12.598;2024-01-27T12:51:16;9.30;99.90
64654;DHT22;51065;48.884;12.598;2024-01-27T12:53:42;9.20;99.90
64654;DHT22;51065;48.884;12.598;2024-01-27T12:56:12;9.50;99.90
64654;DHT22;51065;48.884;12.598;2024-01-27T12:58:39;9.80;99.90
64654;DHT22;51065;48.884;12.598;2024-01-27T13:01:06;9.80;99.90
64654;DHT22;51065;48.884;12.598;2024-01-27T13:03:31;9.60;99.90
64654;DHT22;51065;48.884;12.598;2024-01-27T13:05:57;9.20;99.90
64654;DHT22;51065;48.884;12.598;2024-01-27T13:08:23;9.20;99.90
64654;DHT22;51065;48.884;12.598;2024-01-27T13:10:49;9.30;99.90
64654;DHT22;51065;48.884;12.598;2024-01-27T13:13:15;9.70;99.90
64654;DHT22;51065;48.884;12.598;2024-01-27T13:15:41;10.20;1.00
64654;DHT22;51065;48.884;12.598;2024-01-27T13:18:07;10.20;1.00
64654;DHT22;51065;48.884;12.598;2024-01-27T13:20:32;9.90;1.00
64654;DHT22;51065;48.884;12.598;2024-01-27T13:22:59;10.10;1.00
64654;DHT22;51065;48.884;12.598;2024-01-27T13:25:24;10.40;1.00
64654;DHT22;51065;48.884;12.598;2024-01-27T13:27:50;10.60;99.90
64654;DHT22;51065;48.884;12.598;2024-01-27T13:30:16;10.10;1.00
64654;DHT22;51065;48.884;12.598;2024-01-27T13:32:43;10.20;99.90
64654;DHT22;51065;48.884;12.598;2024-01-27T13:35:09;10.10;1.00
64654;DHT22;51065;48.884;12.598;2024-01-27T13:37:34;10.40;99.90
64654;DHT22;51065;48.884;12.598;2024-01-27T13:40:01;10.10;99.90
64654;DHT22;51065;48.884;12.598;2024-01-27T13:42:26;9.90;99.90
64654;DHT22;51065;48.884;12.598;2024-01-27T13:44:52;9.70;99.90
64654;DHT22;51065;48.884;12.598;2024-01-27T13:47:18;9.10;99.90
64654;DHT22;51065;48.884;12.598;2024-01-27T13:49:44;9.00;99.90
64654;DHT22;51065;48.884;12.598;2024-01-27T13:52:09;8.40;1.00
64654;DHT22;51065;48.884;12.598;2024-01-27T13:54:36;7.70;99.90
64654;DHT22;51065;48.884;12.598;2024-01-27T13:57:02;7.00;99.90
64654;DHT22;51065;48.884;12.598;2024-01-27T13:59:27;6.50;1.00
64654;DHT22;51065;48.884;12.598;2024-01-27T14:01:53;6.20;99.90
64654;DHT22;51065;48.884;12.598;2024-01-27T14:04:20;5.90;99.90
64654;DHT22;51065;48.884;12.598;2024-01-27T14:06:46;5.70;99.90
64654;DHT22;51065;48.884;12.598;2024-01-27T14:09:12;5.50;1.00
64654;DHT22;51065;48.884;12.598;2024-01-27T14:11:38;5.40;9.50
64654;DHT22;51065;48.884;12.598;2024-01-27T14:14:04;5.40;1.00
64654;DHT22;51065;48.884;12.598;2024-01-27T14:16:30;5.50;99.90
64654;DHT22;51065;48.884;12.598;2024-01-27T14:18:57;5.50;99.90
64654;DHT22;51065;48.884;12.598;2024-01-27T14:21:23;5.50;1.00
64654;DHT22;51065;48.884;12.598;2024-01-27T14:23:50;5.40;1.00
64654;DHT22;51065;48.884;12.598;2024-01-27T14:26:15;5.40;1.00
64654;DHT22;51065;48.884;12.598;2024-01-27T14:28:42;5.30;1.00
64654;DHT22;51065;48.884;12.598;2024-01-27T14:31:07;5.30;1.00
64654;DHT22;51065;48.884;12.598;2024-01-27T14:33:33;5.40;1.00
64654;DHT22;51065;48.884;12.598;2024-01-27T14:36:00;5.40;1.00
64654;DHT22;51065;48.884;12.598;2024-01-27T14:38:25;5.30;1.00
64654;DHT22;51065;48.884;12.598;2024-01-27T14:40:51;5.30;1.00
64654;DHT22;51065;48.884;12.598;2024-01-27T14:43:16;5.30;1.00
64654;DHT22;51065;48.884;12.598;2024-01-27T14:45:46;5.30;1.00
64654;DHT22;51065;48.884;12.598;2024-01-27T14:48:12;5.20;1.00
64654;DHT22;51065;48.884;12.598;2024-01-27T14:50:38;5.10;51.00
64654;DHT22;51065;48.884;12.598;2024-01-27T14:53:04;5.10;1.00
64654;DHT22;51065;48.884;12.598;2024-01-27T14:55:31;5.10;14.50
64654;DHT22;51065;48.884;12.598;2024-01-27T14:57:58;5.10;27.10
64654;DHT22;51065;48.884;12.598;2024-01-27T15:00:24;5.10;1.80
64654;DHT22;51065;48.884;12.598;2024-01-27T15:02:49;5.00;99.90
64654;DHT22;51065;48.884;12.598;2024-01-27T15:05:15;5.00;99.90
64654;DHT22;51065;48.884;12.598;2024-01-27T15:07:40;4.90;99.90
64654;DHT22;51065;48.884;12.598;2024-01-27T15:10:07;4.90;99.90
64654;DHT22;51065;48.884;12.598;2024-01-27T15:12:32;4.80;41.50
64654;DHT22;51065;48.884;12.598;2024-01-27T15:14:58;4.80;66.90
64654;DHT22;51065;48.884;12.598;2024-01-27T15:17:23;4.60;99.90
64654;DHT22;51065;48.884;12.598;2024-01-27T15:19:50;4.50;99.90
64654;DHT22;51065;48.884;12.598;2024-01-27T15:22:17;4.20;99.90
64654;DHT22;51065;48.884;12.598;2024-01-27T15:24:44;3.80;1.00
64654;DHT22;51065;48.884;12.598;2024-01-27T15:27:09;3.60;1.00